Acadiana Regional Airport New Iberia US
ICAO: KARA
IATA: ARA
Category: Medium
Scheduled Services: No

Elevation: 24 ft
TransAlt. 18000 ft.

Airport Communications:
LAFAYETTE APP/DEP:121.1
CLNC DEL:121.7
CTAF:125
GND:121.7
TWR:125
UNICOM:122.95

KARA Zoom In..

If you have problems with the map follow the link
https://www.worldairports.se/pages/airport.php?
ICAO=KARA

Runways:

(A) RW 16 length 8002 ft width 200 ft
---- / hdg 165

(B) RW 34 length 8002 ft width 200 ft
ILS 108.90 / hdg 345

Location; KARA
Day. 22 / Time. 16.53 Zulu
* Altimeter: 30.03
* Temperature: 24° c. 75.2°f.
* Wind from: 160° Speed 11 kn.
Dewpoint: 22° c.
Visibility: 10 Statute Miles.
Clouds: Broken 1600 ft.
Clouds: Overcast 2300 ft.

KARA 221653Z 16011KT 10SM BKN016 OVC023 24/22 A3003 RMK AO2 SLP170 T02440217 PNO


Wind From 160°
Speed 11 kn.

 
 
jpsmedia.com for Web Design worldairports.se 2019   terms of use